createdAt,value
2023-04-30T00:00:59.671Z,9.35
2023-04-30T00:03:28.075Z,8.77
2023-04-30T00:05:56.414Z,9.07
2023-04-30T00:08:26.965Z,10.18
2023-04-30T00:10:55.130Z,9.57
2023-04-30T00:13:23.344Z,9.88
2023-04-30T00:15:51.886Z,6.75
2023-04-30T00:18:20.051Z,8.80
2023-04-30T00:20:48.231Z,8.00
2023-04-30T00:23:16.483Z,7.80
2023-04-30T00:25:48.580Z,8.45
2023-04-30T00:28:17.003Z,8.35
2023-04-30T00:30:46.542Z,8.57
2023-04-30T00:33:14.910Z,6.75
2023-04-30T00:35:43.524Z,7.32
2023-04-30T00:38:11.764Z,7.65
2023-04-30T00:40:41.825Z,7.03
2023-04-30T00:43:11.606Z,8.57
2023-04-30T00:45:39.797Z,8.70
2023-04-30T00:48:08.974Z,7.95
2023-04-30T00:50:37.957Z,8.48
2023-04-30T00:53:07.196Z,7.35
2023-04-30T00:55:35.472Z,7.25
2023-04-30T00:58:03.638Z,7.28
2023-04-30T01:00:33.621Z,7.97
2023-04-30T01:03:02.716Z,6.25
2023-04-30T01:05:31.051Z,8.63
2023-04-30T01:07:59.546Z,8.57
2023-04-30T01:10:35.944Z,7.90
2023-04-30T01:13:09.208Z,6.70
2023-04-30T01:15:43.955Z,8.02
2023-04-30T01:18:19.262Z,9.20
2023-04-30T01:20:51.668Z,8.85
2023-04-30T01:23:37.878Z,8.80
2023-04-30T01:26:14.641Z,6.63
2023-04-30T01:28:46.988Z,8.93
2023-04-30T01:31:16.521Z,6.35
2023-04-30T01:33:44.831Z,6.72
2023-04-30T01:36:26.790Z,5.78
2023-04-30T01:39:09.694Z,7.10
2023-04-30T01:41:49.617Z,6.00
2023-04-30T01:44:31.815Z,4.78
2023-04-30T01:47:06.473Z,4.35
2023-04-30T01:49:43.883Z,5.05
2023-04-30T01:52:20.673Z,4.85
2023-04-30T01:54:56.222Z,4.13
2023-04-30T01:57:30.673Z,4.18
2023-04-30T02:00:00.562Z,3.15
2023-04-30T02:02:28.905Z,3.58
2023-04-30T02:04:57.167Z,3.67
2023-04-30T02:07:39.091Z,5.43
2023-04-30T02:10:08.656Z,5.05
2023-04-30T02:12:36.998Z,6.78
2023-04-30T02:15:07.938Z,6.43
2023-04-30T02:17:36.463Z,7.22
2023-04-30T02:20:05.611Z,7.95
2023-04-30T02:22:33.755Z,6.90
2023-04-30T02:25:01.953Z,7.50
2023-04-30T02:27:32.156Z,9.27
2023-04-30T02:30:00.955Z,9.32
2023-04-30T02:32:31.631Z,7.32
2023-04-30T02:35:00.061Z,8.98
2023-04-30T02:37:28.330Z,6.85
2023-04-30T02:39:56.812Z,6.32
2023-04-30T02:42:27.115Z,5.88
2023-04-30T02:44:55.296Z,5.10
2023-04-30T02:47:23.521Z,5.45
2023-04-30T02:49:53.400Z,5.97
2023-04-30T02:52:21.663Z,4.18
2023-04-30T02:54:50.318Z,4.72
2023-04-30T02:57:18.527Z,3.55
2023-04-30T02:59:46.693Z,2.67
2023-04-30T03:02:15.630Z,2.50
2023-04-30T03:04:43.840Z,2.85
2023-04-30T03:07:13.412Z,2.28
2023-04-30T03:09:42.061Z,2.42
2023-04-30T03:12:10.301Z,2.78
2023-04-30T03:14:38.630Z,2.78
2023-04-30T03:17:06.945Z,2.20
2023-04-30T03:19:35.184Z,2.70
2023-04-30T03:22:04.882Z,2.75
2023-04-30T03:24:34.477Z,2.47
2023-04-30T03:27:03.382Z,2.40
2023-04-30T03:29:31.549Z,2.92
2023-04-30T03:31:59.884Z,2.83
2023-04-30T03:34:28.071Z,3.22
2023-04-30T03:36:56.351Z,3.25
2023-04-30T03:39:24.532Z,3.05
2023-04-30T03:41:54.173Z,2.67
2023-04-30T03:44:23.023Z,3.17
2023-04-30T03:46:51.363Z,3.17
2023-04-30T03:49:19.552Z,3.35
2023-04-30T03:51:47.890Z,2.40
2023-04-30T03:54:16.188Z,2.78
2023-04-30T03:56:44.662Z,2.85
2023-04-30T03:59:14.510Z,3.05
2023-04-30T04:01:43.127Z,3.17
2023-04-30T04:04:11.561Z,3.28
2023-04-30T04:06:39.987Z,3.40
2023-04-30T04:09:08.959Z,3.25
2023-04-30T04:11:37.191Z,3.33
2023-04-30T04:14:05.630Z,3.47
2023-04-30T04:16:35.210Z,2.95
2023-04-30T04:19:04.517Z,4.15
2023-04-30T04:21:33.567Z,4.40
2023-04-30T04:24:08.503Z,4.35
2023-04-30T04:26:37.285Z,4.10
2023-04-30T04:29:05.902Z,4.22
2023-04-30T04:31:35.697Z,3.70
2023-04-30T04:34:05.472Z,3.75
2023-04-30T04:36:34.244Z,3.47
2023-04-30T04:39:03.846Z,3.40
2023-04-30T04:41:33.223Z,4.35
2023-04-30T04:44:03.298Z,4.05
2023-04-30T04:46:32.351Z,3.80
2023-04-30T04:49:02.185Z,3.55
2023-04-30T04:51:32.208Z,3.50
2023-04-30T04:54:03.490Z,3.95
2023-04-30T04:56:32.071Z,4.13
2023-04-30T04:59:00.467Z,3.40
2023-04-30T05:01:29.522Z,2.50
2023-04-30T05:03:57.912Z,2.40
2023-04-30T05:06:28.679Z,3.10
2023-04-30T05:08:56.918Z,2.80
2023-04-30T05:11:25.073Z,2.60
2023-04-30T05:13:53.598Z,12.00
2023-04-30T05:16:21.816Z,12.55
2023-04-30T05:18:50.015Z,6.80
2023-04-30T05:21:18.290Z,4.80
2023-04-30T05:23:48.653Z,5.50
2023-04-30T05:26:16.848Z,6.72
2023-04-30T05:28:45.304Z,5.10
2023-04-30T05:31:13.543Z,4.90
2023-04-30T05:33:43.627Z,5.00
2023-04-30T05:36:12.151Z,5.80
2023-04-30T05:38:40.370Z,4.22
2023-04-30T05:41:12.099Z,4.45
2023-04-30T05:43:40.412Z,5.80
2023-04-30T05:46:08.783Z,5.15
2023-04-30T05:48:37.004Z,5.50
2023-04-30T05:51:06.080Z,4.78
2023-04-30T05:53:34.569Z,5.15
2023-04-30T05:56:02.763Z,3.88
2023-04-30T05:58:32.858Z,5.45
2023-04-30T06:01:01.123Z,5.50
2023-04-30T06:03:29.307Z,6.10
2023-04-30T06:05:57.562Z,4.57
2023-04-30T06:08:25.816Z,6.57
2023-04-30T06:10:54.004Z,5.45
2023-04-30T06:13:24.293Z,3.65
2023-04-30T06:15:53.922Z,4.50
2023-04-30T06:18:22.075Z,3.22
2023-04-30T06:20:50.260Z,6.70
2023-04-30T06:23:18.438Z,5.28
2023-04-30T06:25:46.625Z,5.00
2023-04-30T06:28:14.800Z,4.70
2023-04-30T06:30:43.082Z,3.40
2023-04-30T06:33:12.666Z,4.25
2023-04-30T06:35:41.528Z,4.05
2023-04-30T06:38:09.712Z,3.55
2023-04-30T06:40:37.900Z,3.33
2023-04-30T06:43:06.198Z,3.95
2023-04-30T06:45:35.350Z,4.43
2023-04-30T06:48:03.633Z,4.18
2023-04-30T06:50:33.246Z,5.63
2023-04-30T06:53:01.579Z,4.00
2023-04-30T06:55:29.937Z,3.40
2023-04-30T06:57:58.101Z,3.40
2023-04-30T07:00:26.513Z,3.53
2023-04-30T07:02:54.879Z,4.28
2023-04-30T07:05:23.272Z,3.92
2023-04-30T07:07:53.001Z,4.95
2023-04-30T07:10:23.354Z,4.03
2023-04-30T07:12:51.521Z,3.33
2023-04-30T07:15:19.750Z,4.13
2023-04-30T07:17:48.020Z,3.28
2023-04-30T07:20:16.301Z,4.70
2023-04-30T07:22:45.994Z,4.25
2023-04-30T07:25:15.854Z,4.97
2023-04-30T07:27:44.932Z,3.72
2023-04-30T07:30:13.281Z,4.45
2023-04-30T07:32:42.714Z,4.18
2023-04-30T07:35:11.643Z,4.47
2023-04-30T07:37:41.709Z,5.53
2023-04-30T07:40:15.359Z,4.97
2023-04-30T07:42:48.969Z,4.28
2023-04-30T07:45:17.430Z,5.70
2023-04-30T07:47:46.075Z,5.47
2023-04-30T07:50:14.888Z,4.38
2023-04-30T07:52:43.183Z,4.80
2023-04-30T07:55:11.527Z,3.70
2023-04-30T07:57:41.893Z,4.50
2023-04-30T08:00:13.501Z,3.33
2023-04-30T08:02:44.141Z,3.90
2023-04-30T08:05:12.741Z,3.03
2023-04-30T08:07:44.560Z,3.33
2023-04-30T08:10:13.047Z,3.25
2023-04-30T08:12:41.322Z,3.55
2023-04-30T08:15:11.171Z,2.70
2023-04-30T08:17:39.390Z,2.97
2023-04-30T08:20:09.513Z,3.20
2023-04-30T08:22:37.711Z,3.38
2023-04-30T08:25:06.798Z,4.07
2023-04-30T08:27:35.126Z,3.03
2023-04-30T08:30:03.356Z,2.92
2023-04-30T08:32:35.746Z,2.90
2023-04-30T08:35:04.342Z,3.13
2023-04-30T08:37:32.574Z,3.08
2023-04-30T08:40:01.181Z,2.75
2023-04-30T08:42:33.039Z,2.45
2023-04-30T08:45:03.290Z,2.90
2023-04-30T08:47:33.188Z,3.13
2023-04-30T08:50:01.550Z,3.00
2023-04-30T08:52:31.011Z,3.05
2023-04-30T08:54:59.880Z,3.20
2023-04-30T08:57:28.096Z,2.72
2023-04-30T08:59:56.645Z,3.10
2023-04-30T09:02:25.347Z,3.28
2023-04-30T09:04:54.999Z,2.60
2023-04-30T09:07:27.953Z,3.03
2023-04-30T09:09:56.412Z,2.13
2023-04-30T09:12:27.079Z,2.78
2023-04-30T09:15:03.455Z,2.33
2023-04-30T09:17:34.531Z,2.85
2023-04-30T09:20:12.203Z,2.63
2023-04-30T09:22:41.873Z,2.78
2023-04-30T09:25:11.253Z,2.00
2023-04-30T09:27:39.447Z,1.83
2023-04-30T09:30:09.443Z,2.60
2023-04-30T09:32:37.706Z,2.40
2023-04-30T09:35:06.618Z,1.40
2023-04-30T09:37:40.783Z,1.77
2023-04-30T09:40:11.676Z,2.22
2023-04-30T09:42:40.075Z,2.10
2023-04-30T09:45:12.025Z,2.25
2023-04-30T09:50:12.095Z,2.50
2023-04-30T09:52:46.747Z,1.88
2023-04-30T09:55:14.927Z,1.75
2023-04-30T09:57:43.427Z,2.03
2023-04-30T10:00:12.882Z,1.75
2023-04-30T10:02:42.124Z,2.28
2023-04-30T10:05:11.055Z,2.25
2023-04-30T10:07:44.692Z,1.98
2023-04-30T10:10:13.612Z,2.20
2023-04-30T10:12:55.191Z,2.25
2023-04-30T10:15:29.387Z,1.70
2023-04-30T10:18:02.226Z,1.75
2023-04-30T10:20:33.036Z,1.98
2023-04-30T10:23:02.876Z,2.15
2023-04-30T10:25:31.553Z,2.20
2023-04-30T10:28:00.592Z,1.70
2023-04-30T10:30:31.723Z,1.85
2023-04-30T10:33:07.631Z,2.10
2023-04-30T10:35:44.734Z,1.90
2023-04-30T10:38:21.738Z,2.55
2023-04-30T10:40:49.950Z,2.40
2023-04-30T10:43:19.936Z,2.17
2023-04-30T10:45:48.648Z,2.55
2023-04-30T10:48:25.490Z,2.13
2023-04-30T10:50:56.237Z,2.22
2023-04-30T10:53:29.121Z,2.20
2023-04-30T10:56:06.396Z,2.28
2023-04-30T10:58:36.257Z,2.15
2023-04-30T11:01:07.077Z,2.67
2023-04-30T11:03:37.156Z,2.22
2023-04-30T11:06:14.686Z,2.08
2023-04-30T11:08:47.379Z,1.85
2023-04-30T11:11:23.917Z,1.95
2023-04-30T11:14:02.694Z,1.98
2023-04-30T11:16:31.557Z,1.60
2023-04-30T11:19:09.491Z,1.52
2023-04-30T11:21:42.371Z,1.70
2023-04-30T11:24:13.836Z,2.25
2023-04-30T11:27:07.101Z,1.98
2023-04-30T11:29:36.310Z,2.03
2023-04-30T11:32:05.807Z,2.00
2023-04-30T11:34:36.154Z,1.90
2023-04-30T11:37:04.940Z,2.03
2023-04-30T11:39:38.045Z,1.77
2023-04-30T11:42:07.264Z,2.58
2023-04-30T11:44:35.765Z,2.33
2023-04-30T11:47:03.997Z,1.88
2023-04-30T11:49:33.473Z,1.90
2023-04-30T11:52:01.875Z,2.35
2023-04-30T11:54:35.151Z,2.42
2023-04-30T11:57:04.363Z,2.13
2023-04-30T11:59:33.354Z,2.40
2023-04-30T12:02:01.738Z,1.65
2023-04-30T12:04:30.149Z,2.00
2023-04-30T12:06:58.984Z,1.77
2023-04-30T12:09:31.031Z,1.83
2023-04-30T12:12:00.800Z,2.00
2023-04-30T12:14:33.716Z,2.08
2023-04-30T12:17:02.116Z,1.80
2023-04-30T12:19:30.519Z,1.70
2023-04-30T12:21:58.788Z,2.10
2023-04-30T12:24:28.481Z,2.17
2023-04-30T12:26:56.690Z,1.52
2023-04-30T12:29:26.270Z,1.88
2023-04-30T12:31:55.891Z,1.63
2023-04-30T12:34:28.345Z,1.80
2023-04-30T12:37:01.652Z,2.13
2023-04-30T12:39:34.802Z,1.33
2023-04-30T12:42:04.537Z,1.70
2023-04-30T12:44:45.458Z,1.98
2023-04-30T12:47:14.273Z,1.73
2023-04-30T12:49:47.089Z,1.95
2023-04-30T12:52:15.614Z,2.00
2023-04-30T12:54:44.445Z,2.08
2023-04-30T12:57:13.937Z,1.80
2023-04-30T12:59:58.926Z,2.10
2023-04-30T13:02:31.923Z,1.60
2023-04-30T13:05:00.989Z,1.70
2023-04-30T13:07:38.552Z,1.63
2023-04-30T13:10:07.764Z,2.00
2023-04-30T13:12:36.049Z,1.40
2023-04-30T13:15:07.910Z,1.33
2023-04-30T13:17:36.507Z,1.48
2023-04-30T13:20:06.684Z,1.67
2023-04-30T13:22:34.967Z,1.55
2023-04-30T13:25:03.247Z,1.80
2023-04-30T13:27:31.460Z,1.70
2023-04-30T13:29:59.687Z,1.40
2023-04-30T13:32:31.955Z,1.70
2023-04-30T13:35:00.332Z,1.90
2023-04-30T13:37:28.524Z,1.58
2023-04-30T13:39:57.039Z,1.88
2023-04-30T13:42:26.616Z,1.63
2023-04-30T13:44:54.803Z,1.80
2023-04-30T13:47:23.029Z,1.45
2023-04-30T13:49:53.103Z,1.42
2023-04-30T13:52:21.610Z,1.88
2023-04-30T13:54:49.827Z,1.70
2023-04-30T13:57:18.054Z,1.58
2023-04-30T13:59:46.918Z,1.73
2023-04-30T14:02:15.263Z,1.83
2023-04-30T14:04:54.730Z,1.40
2023-04-30T14:07:33.343Z,1.70
2023-04-30T14:10:01.543Z,1.35
2023-04-30T14:12:30.651Z,1.85
2023-04-30T14:14:59.275Z,1.60
2023-04-30T14:17:28.254Z,1.58
2023-04-30T14:19:57.028Z,1.30
2023-04-30T14:22:25.507Z,1.20
2023-04-30T14:24:55.074Z,2.13
2023-04-30T14:27:23.516Z,1.80
2023-04-30T14:29:51.697Z,1.80
2023-04-30T14:32:20.054Z,1.95
2023-04-30T14:34:48.825Z,1.98
2023-04-30T14:37:17.536Z,1.77
2023-04-30T14:39:46.105Z,1.83
2023-04-30T14:42:15.773Z,2.10
2023-04-30T14:44:44.427Z,1.63
2023-04-30T14:47:13.073Z,1.55
2023-04-30T14:49:41.627Z,1.45
2023-04-30T14:52:09.928Z,2.00
2023-04-30T14:54:38.571Z,1.83
2023-04-30T14:57:06.906Z,1.88
2023-04-30T14:59:38.812Z,1.42
2023-04-30T15:02:11.083Z,1.73
2023-04-30T15:04:39.486Z,1.67
2023-04-30T15:07:07.739Z,1.52
2023-04-30T15:09:35.941Z,1.73
2023-04-30T15:12:04.209Z,3.25
2023-04-30T15:14:32.428Z,2.60
2023-04-30T15:17:02.188Z,1.42
2023-04-30T15:19:31.329Z,2.83
2023-04-30T15:21:59.506Z,1.50
2023-04-30T15:24:30.582Z,1.45
2023-04-30T15:26:58.904Z,1.50
2023-04-30T15:29:30.326Z,1.77
2023-04-30T15:31:59.683Z,2.28
2023-04-30T15:34:30.592Z,1.60
2023-04-30T15:36:59.034Z,2.53
2023-04-30T15:39:30.107Z,1.67
2023-04-30T15:41:58.356Z,1.30
2023-04-30T15:44:27.075Z,1.40
2023-04-30T15:46:55.811Z,2.15
2023-04-30T15:49:24.644Z,1.20
2023-04-30T15:51:54.351Z,1.30
2023-04-30T15:54:23.440Z,1.50
2023-04-30T15:56:52.516Z,1.00
2023-04-30T15:59:20.706Z,1.40
2023-04-30T16:01:48.950Z,1.70
2023-04-30T16:04:17.478Z,1.98
2023-04-30T16:06:46.526Z,1.38
2023-04-30T16:09:19.632Z,1.30
2023-04-30T16:11:48.374Z,1.80
2023-04-30T16:14:16.650Z,1.42
2023-04-30T16:16:44.974Z,1.38
2023-04-30T16:19:13.981Z,1.48
2023-04-30T16:21:42.245Z,1.52
2023-04-30T16:24:10.938Z,1.92
2023-04-30T16:26:40.525Z,1.40
2023-04-30T16:29:09.103Z,1.73
2023-04-30T16:31:37.404Z,1.73
2023-04-30T16:34:05.911Z,1.10
2023-04-30T16:36:34.100Z,1.50
2023-04-30T16:39:03.965Z,1.33
2023-04-30T16:41:32.168Z,1.73
2023-04-30T16:44:01.739Z,1.90
2023-04-30T16:46:30.233Z,1.30
2023-04-30T16:48:58.645Z,1.35
2023-04-30T16:51:29.396Z,1.50
2023-04-30T16:53:57.734Z,1.52
2023-04-30T16:56:26.907Z,2.00
2023-04-30T16:58:55.081Z,2.17
2023-04-30T17:01:24.962Z,2.20
2023-04-30T17:03:53.371Z,1.80
2023-04-30T17:06:21.642Z,1.77
2023-04-30T17:08:49.855Z,1.60
2023-04-30T17:11:21.057Z,1.35
2023-04-30T17:13:49.242Z,1.65
2023-04-30T17:16:17.584Z,1.40
2023-04-30T17:18:47.664Z,1.60
2023-04-30T17:21:16.020Z,1.48
2023-04-30T17:23:44.306Z,1.17
2023-04-30T17:26:12.529Z,1.40
2023-04-30T17:28:43.448Z,1.10
2023-04-30T17:31:11.692Z,1.25
2023-04-30T17:33:43.035Z,1.48
2023-04-30T17:36:13.713Z,3.50
2023-04-30T17:38:41.842Z,2.80
2023-04-30T17:41:10.020Z,2.10
2023-04-30T17:43:38.184Z,1.88
2023-04-30T17:46:09.461Z,2.15
2023-04-30T17:48:37.634Z,1.55
2023-04-30T17:51:06.147Z,2.00
2023-04-30T17:53:35.689Z,2.28
2023-04-30T17:56:04.870Z,1.45
2023-04-30T17:58:33.036Z,1.90
2023-04-30T18:01:03.472Z,1.95
2023-04-30T18:03:32.541Z,1.58
2023-04-30T18:06:03.706Z,1.80
2023-04-30T18:08:32.045Z,2.00
2023-04-30T18:11:03.057Z,1.92
2023-04-30T18:13:31.549Z,2.00
2023-04-30T18:16:02.221Z,3.67
2023-04-30T18:18:30.972Z,6.82
2023-04-30T18:21:01.392Z,3.85
2023-04-30T18:23:29.547Z,2.80
2023-04-30T18:25:57.726Z,1.95
2023-04-30T18:28:27.579Z,2.35
2023-04-30T18:30:55.893Z,1.80
2023-04-30T18:33:24.063Z,2.33
2023-04-30T18:35:52.743Z,2.22
2023-04-30T18:38:20.928Z,1.73
2023-04-30T18:40:49.104Z,2.33
2023-04-30T18:43:17.319Z,1.88
2023-04-30T18:45:46.920Z,2.10
2023-04-30T18:48:18.850Z,2.10
2023-04-30T18:50:47.691Z,2.92
2023-04-30T18:53:16.896Z,2.50
2023-04-30T18:55:45.965Z,2.47
2023-04-30T18:58:14.116Z,2.78
2023-04-30T19:00:43.632Z,2.90
2023-04-30T19:03:13.259Z,2.47
2023-04-30T19:05:43.990Z,3.10
2023-04-30T19:08:12.172Z,2.97
2023-04-30T19:10:40.439Z,3.25
2023-04-30T19:13:08.580Z,3.85
2023-04-30T19:15:36.971Z,2.65
2023-04-30T19:18:05.348Z,2.97
2023-04-30T19:20:34.937Z,2.60
2023-04-30T19:23:03.654Z,2.72
2023-04-30T19:25:32.083Z,3.08
2023-04-30T19:28:00.229Z,3.22
2023-04-30T19:30:30.096Z,2.63
2023-04-30T19:33:00.641Z,2.80
2023-04-30T19:35:28.911Z,2.85
2023-04-30T19:37:58.409Z,3.08
2023-04-30T19:40:26.624Z,2.97
2023-04-30T19:42:55.240Z,2.80
2023-04-30T19:45:23.389Z,3.25
2023-04-30T19:47:51.574Z,2.78
2023-04-30T19:50:20.167Z,2.83
2023-04-30T19:52:48.624Z,3.03
2023-04-30T19:55:18.437Z,2.55
2023-04-30T19:57:47.817Z,3.00
2023-04-30T20:00:16.625Z,2.97
2023-04-30T20:02:45.098Z,3.13
2023-04-30T20:05:14.098Z,2.30
2023-04-30T20:07:42.285Z,2.75
2023-04-30T20:10:11.649Z,2.65
2023-04-30T20:12:41.359Z,2.78
2023-04-30T20:15:10.360Z,2.63
2023-04-30T20:17:38.651Z,2.78
2023-04-30T20:20:07.934Z,2.55
2023-04-30T20:22:36.200Z,2.55
2023-04-30T20:25:04.724Z,2.50
2023-04-30T20:27:36.054Z,2.35
2023-04-30T20:30:06.941Z,2.17
2023-04-30T20:32:35.495Z,2.88
2023-04-30T20:35:04.605Z,2.08
2023-04-30T20:37:33.235Z,2.95
2023-04-30T20:40:02.241Z,3.03
2023-04-30T20:42:30.611Z,2.83
2023-04-30T20:44:59.186Z,2.45
2023-04-30T20:47:28.762Z,2.70
2023-04-30T20:49:58.528Z,2.45
2023-04-30T20:52:27.098Z,2.50
2023-04-30T20:54:55.450Z,2.83
2023-04-30T20:57:23.964Z,2.65
2023-04-30T20:59:52.131Z,2.42
2023-04-30T21:02:20.364Z,2.42
2023-04-30T21:04:49.912Z,2.42
2023-04-30T21:07:18.169Z,2.50
2023-04-30T21:09:48.440Z,2.38
2023-04-30T21:12:16.634Z,2.20
2023-04-30T21:14:45.010Z,2.20
2023-04-30T21:17:14.855Z,2.17
2023-04-30T21:19:43.888Z,2.40
2023-04-30T21:22:13.392Z,2.30
2023-04-30T21:24:41.677Z,2.08
2023-04-30T21:27:10.130Z,1.92
2023-04-30T21:29:38.650Z,2.47
2023-04-30T21:32:10.234Z,2.38
2023-04-30T21:34:38.419Z,2.42
2023-04-30T21:37:06.638Z,2.40
2023-04-30T21:39:36.150Z,2.92
2023-04-30T21:42:04.521Z,1.85
2023-04-30T21:44:33.671Z,2.53
2023-04-30T21:47:03.627Z,2.50
2023-04-30T21:49:32.368Z,2.30
2023-04-30T21:52:00.569Z,1.85
2023-04-30T21:54:28.769Z,2.33
2023-04-30T21:56:58.337Z,2.20
2023-04-30T21:59:26.674Z,2.45
2023-04-30T22:01:54.849Z,2.13
2023-04-30T22:04:25.283Z,2.33
2023-04-30T22:06:53.782Z,2.20
2023-04-30T22:09:22.316Z,2.30
2023-04-30T22:11:50.594Z,2.00
2023-04-30T22:14:20.177Z,1.70
2023-04-30T22:16:48.490Z,1.85
2023-04-30T22:19:16.800Z,1.83
2023-04-30T22:21:44.993Z,1.38
2023-04-30T22:24:13.326Z,1.70
2023-04-30T22:26:41.481Z,1.95
2023-04-30T22:29:09.669Z,1.40
2023-04-30T22:31:39.682Z,1.27
2023-04-30T22:34:09.272Z,1.35
2023-04-30T22:36:37.661Z,1.90
2023-04-30T22:39:05.965Z,1.70
2023-04-30T22:41:35.250Z,1.88
2023-04-30T22:44:03.664Z,1.67
2023-04-30T22:46:33.496Z,1.70
2023-04-30T22:49:04.656Z,1.35
2023-04-30T22:51:36.370Z,1.58
2023-04-30T22:54:04.702Z,1.80
2023-04-30T22:56:33.866Z,1.85
2023-04-30T22:59:02.191Z,1.27
2023-04-30T23:01:30.501Z,1.67
2023-04-30T23:03:58.732Z,1.52
2023-04-30T23:06:29.899Z,1.58
2023-04-30T23:08:58.175Z,1.48
2023-04-30T23:11:29.464Z,1.88
2023-04-30T23:13:57.708Z,1.67
2023-04-30T23:16:25.967Z,1.10
2023-04-30T23:18:54.179Z,1.73
2023-04-30T23:21:25.362Z,2.00
2023-04-30T23:23:54.930Z,1.98
2023-04-30T23:26:23.192Z,2.58
2023-04-30T23:28:51.426Z,2.60
2023-04-30T23:31:19.580Z,2.35
2023-04-30T23:33:48.003Z,2.10
2023-04-30T23:36:16.246Z,1.60
2023-04-30T23:38:46.546Z,2.45
2023-04-30T23:41:16.242Z,2.40
2023-04-30T23:43:44.421Z,2.92
2023-04-30T23:46:12.630Z,2.08
2023-04-30T23:48:40.904Z,2.20
2023-04-30T23:51:09.251Z,2.10
2023-04-30T23:53:37.446Z,2.83
2023-04-30T23:56:06.097Z,2.85
2023-04-30T23:58:35.643Z,1.95
